This is the latest recevied weather packets stored in our database for station/object SV2HZE-18. If no packets are shown the sender has not sent any weather packets the latest 10 day(s).
| Time | Temp. | Humidity | Pressure | Rain* | Wind** | Luminosity | Snow |
|---|---|---|---|---|---|---|---|
| 1787827924 | 36.11° C | 36% | 1018.2 hPa | - | - | - | - |
| 1787827028 | 36.11° C | 37% | 1018.3 hPa | - | - | - | - |
| 1787826126 | 34.44° C | 39% | 1018.3 hPa | - | - | - | - |
| 1787825226 | 33.33° C | 44% | 1018.5 hPa | - | - | - | - |
| 1787824322 | 35° C | 40% | 1018.5 hPa | - | - | - | - |
| 1787823424 | 39.44° C | 32% | 1018.7 hPa | - | - | - | - |
| 1787822522 | 42.22° C | 26% | 1018.7 hPa | - | - | - | - |
| 1787821628 | 44.44° C | 25% | 1018.9 hPa | - | - | - | - |
| 1787820724 | 44.44° C | 22% | 1018.9 hPa | - | - | - | - |
| 1787819824 | 43.33° C | 28% | 1018.9 hPa | - | - | - | - |
| 1787818921 | 43.33° C | 27% | 1019 hPa | - | - | - | - |
| 1787817120 | 42.22° C | 30% | 1019.1 hPa | - | - | - | - |
| 1787816217 | 40° C | 33% | 1019.3 hPa | - | - | - | - |
| 1787815313 | 40° C | 32% | 1019.2 hPa | - | - | - | - |
| 1787814413 | 37.78° C | 38% | 1019.1 hPa | - | - | - | - |
| 1787813516 | 37.78° C | 37% | 1019 hPa | - | - | - | - |
| 1787812615 | 37.22° C | 37% | 1018.8 hPa | - | - | - | - |
| 1787811712 | 38.33° C | 33% | 1018.9 hPa | - | - | - | - |
| 1787810812 | 38.33° C | 31% | 1018.6 hPa | - | - | - | - |
| 1787809911 | 36.11° C | 32% | 1018.5 hPa | - | - | - | - |
| 1787809014 | 33.33° C | 38% | 1018.5 hPa | - | - | - | - |
| 1787808111 | 33.33° C | 38% | 1018.3 hPa | - | - | - | - |
| 1787807209 | 32.78° C | 41% | 1018.1 hPa | - | - | - | - |
| 1787806309 | 26.11° C | 57% | 1018.1 hPa | - | - | - | - |
| 1787805412 | 25.56° C | 57% | 1018 hPa | - | - | - | - |
* Rain since midnight (hover to see other rain measurements)
** Current wind speed in m/s (hover to see current wind gust speed)